createdAt,value
2019-01-11T00:00:40.181Z,90.22
2019-01-11T00:01:44.236Z,88.85
2019-01-11T00:02:47.621Z,88.85
2019-01-11T00:03:50.900Z,90.07
2019-01-11T00:04:54.284Z,90.85
2019-01-11T00:05:57.577Z,87.27
2019-01-11T00:07:00.874Z,87.50
2019-01-11T00:08:04.738Z,89.72
2019-01-11T00:09:08.179Z,110.05
2019-01-11T00:10:11.593Z,116.30
2019-01-11T00:11:14.949Z,94.95
2019-01-11T00:12:18.226Z,97.60
2019-01-11T00:13:21.508Z,95.72
2019-01-11T00:14:24.896Z,94.90
2019-01-11T00:15:28.576Z,92.08
2019-01-11T00:16:31.874Z,93.58
2019-01-11T00:17:35.232Z,96.42
2019-01-11T00:18:38.535Z,93.80
2019-01-11T00:19:41.825Z,94.97
2019-01-11T00:20:45.247Z,94.58
2019-01-11T00:21:48.536Z,96.45
2019-01-11T00:22:51.874Z,96.10
2019-01-11T00:23:55.240Z,93.58
2019-01-11T00:24:58.920Z,95.03
2019-01-11T00:26:02.252Z,96.17
2019-01-11T00:27:05.553Z,97.42
2019-01-11T00:28:09.180Z,99.85
2019-01-11T00:29:12.595Z,92.55
2019-01-11T00:30:15.953Z,99.47
2019-01-11T00:31:19.329Z,98.45
2019-01-11T00:32:22.666Z,98.80
2019-01-11T00:33:26.304Z,94.97
2019-01-11T00:34:29.599Z,92.90
2019-01-11T00:35:32.885Z,92.37
2019-01-11T00:36:36.214Z,90.62
2019-01-11T00:37:39.504Z,91.12
2019-01-11T00:38:42.911Z,91.95
2019-01-11T00:39:46.268Z,89.87
2019-01-11T00:40:49.555Z,89.87
2019-01-11T00:41:52.849Z,90.53
2019-01-11T00:42:56.216Z,86.30
2019-01-11T00:43:59.864Z,86.00
2019-01-11T00:45:03.222Z,85.90
2019-01-11T00:46:06.842Z,81.10
2019-01-11T00:47:10.155Z,79.77
2019-01-11T00:48:13.439Z,76.80
2019-01-11T00:49:16.798Z,70.72
2019-01-11T00:50:21.856Z,71.80
2019-01-11T00:51:25.147Z,72.53
2019-01-11T00:52:28.469Z,71.33
2019-01-11T00:53:31.853Z,72.32
2019-01-11T00:54:35.212Z,74.50
2019-01-11T00:55:38.572Z,69.05
2019-01-11T00:56:41.858Z,74.37
2019-01-11T00:57:45.181Z,72.32
2019-01-11T00:58:48.536Z,72.85
2019-01-11T00:59:52.114Z,73.30
2019-01-11T01:00:55.397Z,70.28
2019-01-11T01:01:58.811Z,71.45
2019-01-11T01:03:02.124Z,73.15
2019-01-11T01:04:07.389Z,69.95
2019-01-11T01:05:10.496Z,70.15
2019-01-11T01:06:13.858Z,68.90
2019-01-11T01:07:17.228Z,69.58
2019-01-11T01:08:20.721Z,79.12
2019-01-11T01:09:23.999Z,79.03
2019-01-11T01:10:27.381Z,75.55
2019-01-11T01:11:30.637Z,78.95
2019-01-11T01:12:33.988Z,77.82
2019-01-11T01:13:37.385Z,79.45
2019-01-11T01:14:40.679Z,78.12
2019-01-11T01:15:44.139Z,77.87
2019-01-11T01:16:47.428Z,80.67
2019-01-11T01:17:51.420Z,82.62
2019-01-11T01:18:54.853Z,91.87
2019-01-11T01:19:58.145Z,92.65
2019-01-11T01:21:01.439Z,94.40
2019-01-11T01:22:04.734Z,88.60
2019-01-11T01:23:08.030Z,86.57
2019-01-11T01:24:11.326Z,86.90
2019-01-11T01:25:14.618Z,89.28
2019-01-11T01:26:18.995Z,90.90
2019-01-11T01:27:22.280Z,89.58
2019-01-11T01:28:26.004Z,93.47
2019-01-11T01:29:29.327Z,89.13
2019-01-11T01:30:32.709Z,90.80
2019-01-11T01:31:36.009Z,89.95
2019-01-11T01:32:39.298Z,89.42
2019-01-11T01:33:42.586Z,93.37
2019-01-11T01:34:46.318Z,91.25
2019-01-11T01:35:49.684Z,92.20
2019-01-11T01:36:53.230Z,92.97
2019-01-11T01:37:56.526Z,96.65
2019-01-11T01:38:59.818Z,95.00
2019-01-11T01:40:04.516Z,94.52
2019-01-11T01:41:07.810Z,94.35
2019-01-11T01:42:11.107Z,96.42
2019-01-11T01:43:14.393Z,95.90
2019-01-11T01:44:17.680Z,94.80
2019-01-11T01:45:21.082Z,93.03
2019-01-11T01:46:24.378Z,100.40
2019-01-11T01:47:27.702Z,103.72
2019-01-11T01:48:31.002Z,106.32
2019-01-11T01:49:34.346Z,105.35
2019-01-11T01:50:37.645Z,104.20
2019-01-11T01:51:40.925Z,104.45
2019-01-11T01:52:44.233Z,106.97
2019-01-11T01:53:47.720Z,106.50
2019-01-11T01:54:51.177Z,105.27
2019-01-11T01:55:54.474Z,105.60
2019-01-11T01:56:58.103Z,109.87
2019-01-11T01:58:01.510Z,110.83
2019-01-11T01:59:04.802Z,109.25
2019-01-11T02:00:11.405Z,111.08
2019-01-11T02:01:14.763Z,107.50
2019-01-11T02:02:18.070Z,107.32
2019-01-11T02:03:21.421Z,106.45
2019-01-11T02:04:24.820Z,106.78
2019-01-11T02:05:28.109Z,110.78
2019-01-11T02:06:31.415Z,110.88
2019-01-11T02:07:34.716Z,108.72
2019-01-11T02:08:37.999Z,109.32
2019-01-11T02:09:42.981Z,107.63
2019-01-11T02:10:46.366Z,108.25
2019-01-11T02:11:49.787Z,106.05
2019-01-11T02:12:53.157Z,103.15
2019-01-11T02:13:56.525Z,98.97
2019-01-11T02:15:00.192Z,92.37
2019-01-11T02:16:03.464Z,95.03
2019-01-11T02:17:06.818Z,97.10
2019-01-11T02:18:10.111Z,90.60
2019-01-11T02:19:13.414Z,81.32
2019-01-11T02:20:17.541Z,77.97
2019-01-11T02:21:20.826Z,76.05
2019-01-11T02:22:24.224Z,76.65
2019-01-11T02:23:27.506Z,73.20
2019-01-11T02:24:30.791Z,75.28
2019-01-11T02:25:34.085Z,70.55
2019-01-11T02:26:37.456Z,73.30
2019-01-11T02:27:40.784Z,74.10
2019-01-11T02:28:44.400Z,76.15
2019-01-11T02:29:47.751Z,74.50
2019-01-11T02:30:51.115Z,72.50
2019-01-11T02:31:54.525Z,75.22
2019-01-11T02:32:57.918Z,74.12
2019-01-11T02:34:01.207Z,72.70
2019-01-11T02:35:05.061Z,73.47
2019-01-11T02:36:08.714Z,72.20
2019-01-11T02:37:12.070Z,76.15
2019-01-11T02:38:15.466Z,73.87
2019-01-11T02:39:18.763Z,67.17
2019-01-11T02:40:22.043Z,69.12
2019-01-11T02:41:25.671Z,69.12
2019-01-11T02:42:28.959Z,67.08
2019-01-11T02:43:32.297Z,67.62
2019-01-11T02:44:37.303Z,70.05
2019-01-11T02:45:40.589Z,68.83
2019-01-11T02:46:43.874Z,63.85
2019-01-11T02:47:47.157Z,65.47
2019-01-11T02:48:50.471Z,67.62
2019-01-11T02:49:55.089Z,65.28
2019-01-11T02:50:58.583Z,63.45
2019-01-11T02:52:01.874Z,60.48
2019-01-11T02:53:05.161Z,59.70
2019-01-11T02:54:08.486Z,61.60
2019-01-11T02:55:11.881Z,60.60
2019-01-11T02:56:15.165Z,62.88
2019-01-11T02:57:18.453Z,62.53
2019-01-11T02:58:21.748Z,62.25
2019-01-11T02:59:25.140Z,60.83
2019-01-11T03:00:28.507Z,59.67
2019-01-11T03:01:31.789Z,58.63
2019-01-11T03:02:35.078Z,58.68
2019-01-11T03:03:38.359Z,56.55
2019-01-11T03:04:41.682Z,58.80
2019-01-11T03:05:44.991Z,56.83
2019-01-11T03:06:48.384Z,58.55
2019-01-11T03:07:51.667Z,57.40
2019-01-11T03:08:54.957Z,57.00
2019-01-11T03:09:58.285Z,55.00
2019-01-11T03:11:01.574Z,55.90
2019-01-11T03:12:04.870Z,56.35
2019-01-11T03:13:08.159Z,54.98
2019-01-11T03:14:11.510Z,57.15
2019-01-11T03:15:15.991Z,56.10
2019-01-11T03:16:19.386Z,55.48
2019-01-11T03:17:22.679Z,55.60
2019-01-11T03:18:25.985Z,54.65
2019-01-11T03:19:29.253Z,52.83
2019-01-11T03:20:32.544Z,55.25
2019-01-11T03:21:35.881Z,52.45
2019-01-11T03:22:39.183Z,54.88
2019-01-11T03:23:42.856Z,53.40
2019-01-11T03:24:46.522Z,53.60
2019-01-11T03:25:49.815Z,52.75
2019-01-11T03:26:53.139Z,52.83
2019-01-11T03:27:56.421Z,53.85
2019-01-11T03:28:59.721Z,55.67
2019-01-11T03:30:03.377Z,55.03
2019-01-11T03:31:08.314Z,56.23
2019-01-11T03:32:11.643Z,56.92
2019-01-11T03:33:14.924Z,62.17
2019-01-11T03:34:18.216Z,59.77
2019-01-11T03:35:21.501Z,58.28
2019-01-11T03:36:24.787Z,56.75
2019-01-11T03:37:28.110Z,58.20
2019-01-11T03:38:31.497Z,60.08
2019-01-11T03:39:34.798Z,60.38
2019-01-11T03:40:38.422Z,61.77
2019-01-11T03:41:43.355Z,60.15
2019-01-11T03:42:46.687Z,60.33
2019-01-11T03:43:49.950Z,58.15
2019-01-11T03:44:53.240Z,57.50
2019-01-11T03:45:56.525Z,56.73
2019-01-11T03:46:59.815Z,62.30
2019-01-11T03:48:03.560Z,59.60
2019-01-11T03:49:06.920Z,58.87
2019-01-11T03:50:12.527Z,56.18
2019-01-11T03:51:15.804Z,55.65
2019-01-11T03:52:19.459Z,62.80
2019-01-11T03:53:22.823Z,62.33
2019-01-11T03:54:26.080Z,60.65
2019-01-11T03:55:29.370Z,60.70
2019-01-11T03:56:32.660Z,58.08
2019-01-11T03:57:36.030Z,55.35
2019-01-11T03:58:39.347Z,55.45
2019-01-11T03:59:42.989Z,59.33
2019-01-11T04:00:46.278Z,60.05
2019-01-11T04:01:49.561Z,64.05
2019-01-11T04:02:52.918Z,61.55
2019-01-11T04:03:56.240Z,68.22
2019-01-11T04:04:59.528Z,72.32
2019-01-11T04:06:02.813Z,69.42
2019-01-11T04:07:06.100Z,73.35
2019-01-11T04:08:09.468Z,74.32
2019-01-11T04:09:12.809Z,73.35
2019-01-11T04:10:18.349Z,97.53
2019-01-11T04:11:21.649Z,110.37
2019-01-11T04:12:25.261Z,105.92
2019-01-11T04:13:30.576Z,75.15
2019-01-11T04:14:33.747Z,80.32
2019-01-11T04:15:37.105Z,77.00
2019-01-11T04:16:40.393Z,81.57
2019-01-11T04:17:43.749Z,74.97
2019-01-11T04:18:48.672Z,78.05
2019-01-11T04:19:52.007Z,77.10
2019-01-11T04:20:56.875Z,75.90
2019-01-11T04:22:01.801Z,77.67
2019-01-11T04:23:05.093Z,77.58
2019-01-11T04:24:08.446Z,78.67
2019-01-11T04:25:13.496Z,77.72
2019-01-11T04:26:16.785Z,76.22
2019-01-11T04:27:20.156Z,75.15
2019-01-11T04:28:23.584Z,76.82
2019-01-11T04:29:26.938Z,78.87
2019-01-11T04:30:30.256Z,75.47
2019-01-11T04:31:33.604Z,74.37
2019-01-11T04:32:36.951Z,76.53
2019-01-11T04:33:40.236Z,75.70
2019-01-11T04:34:43.544Z,76.00
2019-01-11T04:35:46.855Z,83.05
2019-01-11T04:36:50.136Z,84.00
2019-01-11T04:37:53.529Z,79.42
2019-01-11T04:38:56.815Z,78.37
2019-01-11T04:40:00.106Z,79.50
2019-01-11T04:41:03.914Z,74.15
2019-01-11T04:42:07.284Z,73.28
2019-01-11T04:43:10.666Z,71.02
2019-01-11T04:44:14.461Z,78.00
2019-01-11T04:45:17.920Z,75.28
2019-01-11T04:46:21.246Z,77.97
2019-01-11T04:47:24.627Z,78.12
2019-01-11T04:48:27.905Z,77.82
2019-01-11T04:49:31.195Z,84.50
2019-01-11T04:50:34.491Z,80.90
2019-01-11T04:51:37.823Z,80.47
2019-01-11T04:52:41.143Z,82.50
2019-01-11T04:53:44.498Z,118.22
2019-01-11T04:54:47.784Z,102.27
2019-01-11T04:55:51.074Z,92.78
2019-01-11T04:56:54.387Z,78.75
2019-01-11T04:57:58.028Z,81.45
2019-01-11T04:59:01.424Z,77.75
2019-01-11T05:00:11.218Z,90.03
2019-01-11T05:01:14.570Z,76.60
2019-01-11T05:02:17.856Z,76.07
2019-01-11T05:03:21.478Z,75.62
2019-01-11T05:04:24.841Z,64.82
2019-01-11T05:05:28.129Z,59.00
2019-01-11T05:06:31.492Z,57.85
2019-01-11T05:07:34.829Z,57.55
2019-01-11T05:08:38.123Z,59.23
2019-01-11T05:09:41.409Z,53.10
2019-01-11T05:10:44.725Z,52.08
2019-01-11T05:11:48.018Z,51.85
2019-01-11T05:12:51.409Z,50.63
2019-01-11T05:13:54.766Z,43.42
2019-01-11T05:14:58.065Z,53.45
2019-01-11T05:16:01.425Z,58.65
2019-01-11T05:17:04.710Z,45.88
2019-01-11T05:18:08.047Z,44.18
2019-01-11T05:19:11.336Z,45.85
2019-01-11T05:20:17.138Z,44.18
2019-01-11T05:21:20.834Z,41.92
2019-01-11T05:22:24.129Z,43.20
2019-01-11T05:23:27.534Z,49.35
2019-01-11T05:24:30.834Z,44.40
2019-01-11T05:25:34.121Z,37.00
2019-01-11T05:26:37.467Z,38.23
2019-01-11T05:27:40.764Z,35.50
2019-01-11T05:28:44.077Z,43.17
2019-01-11T05:29:47.356Z,43.30
2019-01-11T05:30:50.946Z,42.58
2019-01-11T05:31:54.573Z,41.68
2019-01-11T05:32:57.869Z,41.15
2019-01-11T05:34:01.166Z,40.58
2019-01-11T05:35:05.971Z,41.63
2019-01-11T05:36:09.329Z,40.73
2019-01-11T05:37:12.680Z,40.17
2019-01-11T05:38:15.974Z,39.03
2019-01-11T05:39:19.390Z,40.28
2019-01-11T05:40:22.649Z,42.98
2019-01-11T05:41:25.961Z,38.65
2019-01-11T05:42:29.219Z,41.75
2019-01-11T05:43:32.565Z,41.58
2019-01-11T05:44:35.885Z,42.00
2019-01-11T05:45:39.167Z,40.55
2019-01-11T05:46:46.837Z,39.92
2019-01-11T05:47:50.326Z,41.83
2019-01-11T05:48:53.762Z,36.28
2019-01-11T05:49:57.082Z,32.17
2019-01-11T05:51:00.378Z,23.20
2019-01-11T05:52:03.680Z,21.62
2019-01-11T05:53:06.960Z,28.67
2019-01-11T05:54:10.257Z,26.02
2019-01-11T05:55:15.230Z,24.70
2019-01-11T05:56:19.292Z,18.95
2019-01-11T05:57:22.598Z,19.32
2019-01-11T05:58:32.127Z,23.15
2019-01-11T05:59:35.786Z,21.97
2019-01-11T06:00:39.087Z,22.40
2019-01-11T06:01:42.382Z,24.50
2019-01-11T06:02:45.816Z,24.92
2019-01-11T06:03:49.161Z,22.05
2019-01-11T06:04:52.544Z,24.25
2019-01-11T06:05:55.868Z,24.60
2019-01-11T06:07:01.821Z,28.20
2019-01-11T06:08:06.701Z,23.60
2019-01-11T06:09:09.984Z,25.48
2019-01-11T06:10:14.958Z,26.73
2019-01-11T06:11:18.242Z,25.08
2019-01-11T06:12:22.597Z,24.00
2019-01-11T06:13:25.879Z,24.12
2019-01-11T06:14:29.561Z,25.12
2019-01-11T06:15:32.874Z,20.90
2019-01-11T06:16:36.503Z,18.73
2019-01-11T06:17:39.861Z,17.82
2019-01-11T06:18:43.130Z,17.87
2019-01-11T06:19:46.559Z,19.00
2019-01-11T06:20:50.354Z,18.25
2019-01-11T06:21:53.727Z,18.17
2019-01-11T06:22:57.367Z,17.32
2019-01-11T06:24:02.693Z,18.12
2019-01-11T06:25:06.355Z,16.67
2019-01-11T06:26:09.740Z,19.75
2019-01-11T06:27:13.029Z,18.15
2019-01-11T06:28:16.323Z,16.82
2019-01-11T06:29:19.937Z,16.82
2019-01-11T06:30:23.592Z,20.55
2019-01-11T06:31:27.002Z,25.45
2019-01-11T06:32:30.282Z,18.07
2019-01-11T06:33:33.629Z,17.75
2019-01-11T06:34:36.988Z,16.45
2019-01-11T06:35:40.344Z,17.02
2019-01-11T06:36:43.652Z,18.35
2019-01-11T06:37:47.409Z,16.30
2019-01-11T06:38:50.702Z,14.53
2019-01-11T06:39:54.005Z,13.18
2019-01-11T06:40:58.920Z,15.35
2019-01-11T06:42:05.574Z,14.60
2019-01-11T06:43:09.024Z,12.43
2019-01-11T06:44:12.634Z,14.45
2019-01-11T06:45:16.262Z,17.75
2019-01-11T06:46:21.551Z,15.93
2019-01-11T06:47:24.960Z,13.98
2019-01-11T06:48:29.886Z,15.30
2019-01-11T06:49:33.165Z,17.92
2019-01-11T06:50:36.680Z,17.95
2019-01-11T06:51:39.987Z,16.20
2019-01-11T06:52:43.389Z,15.03
2019-01-11T06:53:46.728Z,15.25
2019-01-11T06:54:50.086Z,17.02
2019-01-11T06:55:53.378Z,16.97
2019-01-11T06:56:56.732Z,17.30
2019-01-11T06:58:00.088Z,15.23
2019-01-11T06:59:04.970Z,14.87
2019-01-11T07:00:16.893Z,15.00
2019-01-11T07:01:21.350Z,15.58
2019-01-11T07:02:24.706Z,15.13
2019-01-11T07:03:28.096Z,15.45
2019-01-11T07:04:31.452Z,16.75
2019-01-11T07:05:35.277Z,17.85
2019-01-11T07:06:49.511Z,17.35
2019-01-11T07:07:52.865Z,15.65
2019-01-11T07:08:56.619Z,16.23
2019-01-11T07:10:00.132Z,18.20
2019-01-11T07:11:03.943Z,18.90
2019-01-11T07:12:07.224Z,18.45
2019-01-11T07:13:10.510Z,18.25
2019-01-11T07:14:13.907Z,35.15
2019-01-11T07:15:17.686Z,77.40
2019-01-11T07:16:20.980Z,38.65
2019-01-11T07:17:24.260Z,20.48
2019-01-11T07:18:27.946Z,29.70
2019-01-11T07:19:32.633Z,17.90
2019-01-11T07:20:36.221Z,33.80
2019-01-11T07:21:41.060Z,20.40
2019-01-11T07:22:44.381Z,23.15
2019-01-11T07:23:47.660Z,23.45
2019-01-11T07:24:50.988Z,25.25
2019-01-11T07:25:54.273Z,24.50
2019-01-11T07:26:57.725Z,21.62
2019-01-11T07:28:02.186Z,25.75
2019-01-11T07:29:05.573Z,23.42
2019-01-11T07:30:12.272Z,18.10
2019-01-11T07:31:15.799Z,15.98
2019-01-11T07:32:19.229Z,15.78
2019-01-11T07:33:23.485Z,16.05
2019-01-11T07:34:28.473Z,14.83
2019-01-11T07:35:33.466Z,15.95
2019-01-11T07:36:36.991Z,14.38
2019-01-11T07:37:40.286Z,16.25
2019-01-11T07:38:52.425Z,17.10
2019-01-11T07:39:55.705Z,16.10
2019-01-11T07:40:58.987Z,16.10
2019-01-11T07:42:02.282Z,15.25
2019-01-11T07:43:05.567Z,16.10
2019-01-11T07:44:08.874Z,18.55
2019-01-11T07:45:13.315Z,19.10
2019-01-11T07:46:16.710Z,18.42
2019-01-11T07:47:20.424Z,18.60
2019-01-11T07:48:23.793Z,19.07
2019-01-11T07:49:27.089Z,22.45
2019-01-11T07:50:30.691Z,18.02
2019-01-11T07:51:33.979Z,19.98
2019-01-11T07:52:37.264Z,17.60
2019-01-11T07:53:40.629Z,14.78
2019-01-11T07:54:44.154Z,20.52
2019-01-11T07:55:47.402Z,18.57
2019-01-11T07:56:50.972Z,20.43
2019-01-11T07:57:54.256Z,20.55
2019-01-11T07:58:57.537Z,19.75
2019-01-11T08:00:01.142Z,26.35
2019-01-11T08:01:04.530Z,25.60
2019-01-11T08:02:07.875Z,25.32
2019-01-11T08:03:11.171Z,20.27
2019-01-11T08:04:14.456Z,21.05
2019-01-11T08:05:17.789Z,19.48
2019-01-11T08:06:21.087Z,14.25
2019-01-11T08:07:24.441Z,16.52
2019-01-11T08:08:27.725Z,16.20
2019-01-11T08:09:31.171Z,20.48
2019-01-11T08:10:34.482Z,27.60
2019-01-11T08:11:37.770Z,33.23
2019-01-11T08:12:41.061Z,26.85
2019-01-11T08:13:44.346Z,21.68
2019-01-11T08:14:47.782Z,20.57
2019-01-11T08:15:51.106Z,19.07
2019-01-11T08:16:54.410Z,20.52
2019-01-11T08:17:57.686Z,19.67
2019-01-11T08:19:01.130Z,20.80
2019-01-11T08:20:05.645Z,22.52
2019-01-11T08:21:10.560Z,26.25
2019-01-11T08:22:15.533Z,41.98
2019-01-11T08:23:18.895Z,18.73
2019-01-11T08:24:22.312Z,16.52
2019-01-11T08:25:25.570Z,15.83
2019-01-11T08:26:28.857Z,19.25
2019-01-11T08:27:32.141Z,29.30
2019-01-11T08:28:35.531Z,30.95
2019-01-11T08:29:38.881Z,23.42
2019-01-11T08:30:42.174Z,81.20
2019-01-11T08:31:45.469Z,36.05
2019-01-11T08:32:48.747Z,11.53
2019-01-11T08:33:52.958Z,12.58
2019-01-11T08:34:56.244Z,12.07
2019-01-11T08:35:59.741Z,14.10
2019-01-11T08:37:03.197Z,15.70
2019-01-11T08:38:06.490Z,20.15
2019-01-11T08:39:09.813Z,21.87
2019-01-11T08:40:13.278Z,24.32
2019-01-11T08:41:16.576Z,21.37
2019-01-11T08:42:19.908Z,19.60
2019-01-11T08:43:23.204Z,23.02
2019-01-11T08:44:26.529Z,19.35
2019-01-11T08:45:30.135Z,16.23
2019-01-11T08:46:33.414Z,16.27
2019-01-11T08:47:36.762Z,17.35
2019-01-11T08:48:40.114Z,17.45
2019-01-11T08:49:43.817Z,19.92
2019-01-11T08:50:48.778Z,20.23
2019-01-11T08:51:52.054Z,12.78
2019-01-11T08:52:56.123Z,10.80
2019-01-11T08:53:59.481Z,11.15
2019-01-11T08:55:02.801Z,11.10
2019-01-11T08:56:08.413Z,15.05
2019-01-11T08:57:11.170Z,16.65
2019-01-11T08:58:14.458Z,16.97
2019-01-11T08:59:17.748Z,16.27
2019-01-11T09:00:21.110Z,14.98
2019-01-11T09:01:24.466Z,15.03
2019-01-11T09:02:27.763Z,12.85
2019-01-11T09:03:32.682Z,12.58
2019-01-11T09:04:35.972Z,19.73
2019-01-11T09:05:39.366Z,39.33
2019-01-11T09:06:42.652Z,44.25
2019-01-11T09:07:46.034Z,40.23
2019-01-11T09:08:49.747Z,34.53
2019-01-11T09:09:53.039Z,27.75
2019-01-11T09:10:56.365Z,34.35
2019-01-11T09:11:59.684Z,32.63
2019-01-11T09:13:03.068Z,26.93
2019-01-11T09:14:08.332Z,40.67
2019-01-11T09:15:12.010Z,42.38
2019-01-11T09:16:20.607Z,36.17
2019-01-11T09:17:20.795Z,45.05
2019-01-11T09:18:25.808Z,22.35
2019-01-11T09:19:29.079Z,15.68
2019-01-11T09:20:32.375Z,15.88
2019-01-11T09:21:41.465Z,15.53
2019-01-11T09:22:40.852Z,16.07
2019-01-11T09:23:44.137Z,19.67
2019-01-11T09:24:47.422Z,20.45
2019-01-11T09:25:50.723Z,20.88
2019-01-11T09:26:54.052Z,21.17
2019-01-11T09:27:57.370Z,20.30
2019-01-11T09:29:03.002Z,20.40
2019-01-11T09:30:09.120Z,24.65
2019-01-11T09:31:12.978Z,24.12
2019-01-11T09:32:16.283Z,19.85
2019-01-11T09:33:20.562Z,19.15
2019-01-11T09:34:24.534Z,21.42
2019-01-11T09:35:27.829Z,36.88
2019-01-11T09:36:31.122Z,47.13
2019-01-11T09:37:34.501Z,34.98
2019-01-11T09:38:37.757Z,22.40
2019-01-11T09:39:41.099Z,20.77
2019-01-11T09:40:44.634Z,19.25
2019-01-11T09:41:47.915Z,20.90
2019-01-11T09:42:51.391Z,45.00
2019-01-11T09:43:54.746Z,41.88
2019-01-11T09:44:58.035Z,36.95
2019-01-11T09:46:01.320Z,31.87
2019-01-11T09:47:04.661Z,27.10
2019-01-11T09:48:08.005Z,52.23
2019-01-11T09:49:11.386Z,54.95
2019-01-11T09:50:14.749Z,46.02
2019-01-11T09:51:18.057Z,46.53
2019-01-11T09:52:21.423Z,38.30
2019-01-11T09:53:24.744Z,46.50
2019-01-11T09:54:28.034Z,36.70
2019-01-11T09:55:31.392Z,33.90
2019-01-11T09:56:34.791Z,22.85
2019-01-11T09:57:38.150Z,47.48
2019-01-11T09:58:41.522Z,43.55
2019-01-11T09:59:44.924Z,38.85
2019-01-11T10:00:48.350Z,31.55
2019-01-11T10:01:53.278Z,21.85
2019-01-11T10:03:01.057Z,21.42
2019-01-11T10:04:04.542Z,20.72
2019-01-11T10:05:09.014Z,29.67
2019-01-11T10:06:12.417Z,28.45
2019-01-11T10:07:20.044Z,18.27
2019-01-11T10:08:23.505Z,17.50
2019-01-11T10:09:26.858Z,16.50
2019-01-11T10:10:30.148Z,14.47
2019-01-11T10:11:33.469Z,14.87
2019-01-11T10:12:36.778Z,14.18
2019-01-11T10:13:40.336Z,16.85
2019-01-11T10:14:43.618Z,16.35
2019-01-11T10:15:46.911Z,18.40
2019-01-11T10:16:50.274Z,21.42
2019-01-11T10:17:53.822Z,19.92
2019-01-11T10:18:57.117Z,20.10
2019-01-11T10:20:00.398Z,13.40
2019-01-11T10:21:03.702Z,12.65
2019-01-11T10:22:07.058Z,13.20
2019-01-11T10:23:10.364Z,12.50
2019-01-11T10:24:13.691Z,14.38
2019-01-11T10:25:17.045Z,19.30
2019-01-11T10:26:20.337Z,33.83
2019-01-11T10:27:24.000Z,35.73
2019-01-11T10:28:27.300Z,31.70
2019-01-11T10:29:30.636Z,25.02
2019-01-11T10:30:33.919Z,24.43
2019-01-11T10:31:37.547Z,21.95
2019-01-11T10:32:40.973Z,19.20
2019-01-11T10:33:44.363Z,16.23
2019-01-11T10:34:47.689Z,15.78
2019-01-11T10:35:53.340Z,17.10
2019-01-11T10:36:56.618Z,17.27
2019-01-11T10:37:59.952Z,16.20
2019-01-11T10:39:03.988Z,14.90
2019-01-11T10:40:11.796Z,15.60
2019-01-11T10:41:15.065Z,13.73
2019-01-11T10:42:18.511Z,13.63
2019-01-11T10:43:21.964Z,14.97
2019-01-11T10:44:25.266Z,11.80
2019-01-11T10:45:28.648Z,11.90
2019-01-11T10:46:35.770Z,9.77
2019-01-11T10:47:39.045Z,10.90
2019-01-11T10:48:42.325Z,8.70
2019-01-11T10:49:45.615Z,9.80
2019-01-11T10:50:48.958Z,10.40
2019-01-11T10:51:52.253Z,9.83
2019-01-11T10:52:55.801Z,9.10
2019-01-11T10:53:59.081Z,12.50
2019-01-11T10:55:02.380Z,10.40
2019-01-11T10:56:05.689Z,7.83
2019-01-11T10:57:09.037Z,8.17
2019-01-11T10:58:12.318Z,9.70
2019-01-11T10:59:17.119Z,9.13
2019-01-11T11:00:24.610Z,9.97
2019-01-11T11:01:27.966Z,9.20
2019-01-11T11:02:31.250Z,13.10
2019-01-11T11:03:34.649Z,11.73
2019-01-11T11:04:38.013Z,11.50
2019-01-11T11:05:41.309Z,11.27
2019-01-11T11:06:44.742Z,13.33
2019-01-11T11:07:48.029Z,11.00
2019-01-11T11:08:51.310Z,12.23
2019-01-11T11:09:54.652Z,11.43
2019-01-11T11:10:58.002Z,11.03
2019-01-11T11:12:01.409Z,14.93
2019-01-11T11:13:04.701Z,12.70
2019-01-11T11:14:08.112Z,15.57
2019-01-11T11:15:13.747Z,13.43
2019-01-11T11:16:17.030Z,42.87
2019-01-11T11:17:20.349Z,43.78
2019-01-11T11:18:23.776Z,39.67
2019-01-11T11:19:27.143Z,26.40
2019-01-11T11:20:30.500Z,31.77
2019-01-11T11:21:34.790Z,17.60
2019-01-11T11:22:38.286Z,15.15
2019-01-11T11:23:43.147Z,14.25
2019-01-11T11:24:46.460Z,16.80
2019-01-11T11:25:49.744Z,19.82
2019-01-11T11:26:53.100Z,41.35
2019-01-11T11:27:56.431Z,21.30
2019-01-11T11:28:59.720Z,13.60
2019-01-11T11:30:03.016Z,12.00
2019-01-11T11:31:06.307Z,20.82
2019-01-11T11:32:12.791Z,17.52
2019-01-11T11:33:21.245Z,16.05
2019-01-11T11:34:25.484Z,10.85
2019-01-11T11:35:30.309Z,11.15
2019-01-11T11:36:33.600Z,12.00
2019-01-11T11:37:36.891Z,11.05
2019-01-11T11:38:40.216Z,10.90
2019-01-11T11:39:43.533Z,11.33
2019-01-11T11:40:47.180Z,17.90
2019-01-11T11:41:50.562Z,17.70
2019-01-11T11:42:53.902Z,19.65
2019-01-11T11:43:57.299Z,19.40
2019-01-11T11:45:00.600Z,18.42
2019-01-11T11:46:03.974Z,21.02
2019-01-11T11:47:07.274Z,19.70
2019-01-11T11:48:10.639Z,15.23
2019-01-11T11:49:14.285Z,16.27
2019-01-11T11:50:17.581Z,16.45
2019-01-11T11:51:20.936Z,16.10
2019-01-11T11:52:24.413Z,18.23
2019-01-11T11:53:27.746Z,22.07
2019-01-11T11:54:31.075Z,22.37
2019-01-11T11:55:34.376Z,25.77
2019-01-11T11:56:37.668Z,20.00
2019-01-11T11:57:40.962Z,18.00
2019-01-11T11:58:44.249Z,19.50
2019-01-11T11:59:47.639Z,16.52
2019-01-11T12:00:50.943Z,12.85
2019-01-11T12:01:54.222Z,14.93
2019-01-11T12:02:57.568Z,15.95
2019-01-11T12:04:00.820Z,16.35
2019-01-11T12:05:06.674Z,16.00
2019-01-11T12:06:09.965Z,10.43
2019-01-11T12:07:13.263Z,10.98
2019-01-11T12:08:16.569Z,10.70
2019-01-11T12:09:19.867Z,11.65
2019-01-11T12:10:23.568Z,9.88
2019-01-11T12:11:26.933Z,10.67
2019-01-11T12:12:31.427Z,12.15
2019-01-11T12:13:34.961Z,12.33
2019-01-11T12:14:38.308Z,11.20
2019-01-11T12:15:41.637Z,9.45
2019-01-11T12:16:44.931Z,9.38
2019-01-11T12:17:48.230Z,8.93
2019-01-11T12:18:51.564Z,8.05
2019-01-11T12:19:57.145Z,9.85
2019-01-11T12:21:00.069Z,8.85
2019-01-11T12:22:03.365Z,7.70
2019-01-11T12:23:06.636Z,7.70
2019-01-11T12:24:09.924Z,7.92
2019-01-11T12:25:13.204Z,7.57
2019-01-11T12:26:16.669Z,9.45
2019-01-11T12:27:20.005Z,8.83
2019-01-11T12:28:23.285Z,8.23
2019-01-11T12:29:26.794Z,8.30
2019-01-11T12:30:30.077Z,8.58
2019-01-11T12:31:33.537Z,8.67
2019-01-11T12:32:36.831Z,9.63
2019-01-11T12:33:40.112Z,8.05
2019-01-11T12:34:43.381Z,9.10
2019-01-11T12:35:46.690Z,12.60
2019-01-11T12:36:49.994Z,12.10
2019-01-11T12:37:53.287Z,11.37
2019-01-11T12:38:56.561Z,10.27
2019-01-11T12:39:59.848Z,10.37
2019-01-11T12:41:03.133Z,10.80
2019-01-11T12:42:06.450Z,15.00
2019-01-11T12:43:12.077Z,11.03
2019-01-11T12:44:15.427Z,12.83
2019-01-11T12:45:18.817Z,11.43
2019-01-11T12:46:22.260Z,8.10
2019-01-11T12:47:25.595Z,9.13
2019-01-11T12:48:28.998Z,11.47
2019-01-11T12:49:32.349Z,12.87
2019-01-11T12:50:36.130Z,10.00
2019-01-11T12:51:39.424Z,7.67
2019-01-11T12:52:42.707Z,7.63
2019-01-11T12:53:46.086Z,7.97
2019-01-11T12:54:50.747Z,8.20
2019-01-11T12:55:54.049Z,8.93
2019-01-11T12:56:57.361Z,11.83
2019-01-11T12:58:00.638Z,12.10
2019-01-11T12:59:04.332Z,10.97
2019-01-11T13:00:13.465Z,8.90
2019-01-11T13:01:16.747Z,9.03
2019-01-11T13:02:20.027Z,7.67
2019-01-11T13:03:23.448Z,8.20
2019-01-11T13:04:27.073Z,9.47
2019-01-11T13:05:30.365Z,11.93
2019-01-11T13:06:33.718Z,14.97
2019-01-11T13:07:37.008Z,16.90
2019-01-11T13:08:40.294Z,18.10
2019-01-11T13:09:43.622Z,15.17
2019-01-11T13:10:46.905Z,13.80
2019-01-11T13:11:50.189Z,9.03
2019-01-11T13:12:53.611Z,11.77
2019-01-11T13:13:56.888Z,19.23
2019-01-11T13:15:00.287Z,12.40
2019-01-11T13:16:03.672Z,12.43
2019-01-11T13:17:07.033Z,13.77
2019-01-11T13:18:10.311Z,13.50
2019-01-11T13:19:13.638Z,15.27
2019-01-11T13:20:19.152Z,11.97
2019-01-11T13:21:22.819Z,8.63
2019-01-11T13:22:26.109Z,8.30
2019-01-11T13:23:29.406Z,11.83
2019-01-11T13:24:32.762Z,8.97
2019-01-11T13:25:36.073Z,10.67
2019-01-11T13:26:39.436Z,9.67
2019-01-11T13:27:42.720Z,8.00
2019-01-11T13:28:46.001Z,7.80
2019-01-11T13:29:49.288Z,7.57
2019-01-11T13:30:52.609Z,7.63
2019-01-11T13:31:55.959Z,7.23
2019-01-11T13:32:59.289Z,6.53
2019-01-11T13:34:02.538Z,9.83
2019-01-11T13:35:06.917Z,10.53
2019-01-11T13:36:11.882Z,10.77
2019-01-11T13:37:15.252Z,8.23
2019-01-11T13:38:18.747Z,7.30
2019-01-11T13:39:22.031Z,7.40
2019-01-11T13:40:25.317Z,6.87